Fort Pierce, Florida
Current Conditions -  °F | °C
As of 3:53 AM on Friday 19 Dec 2014 (Local Time) from KFPR Reporting Station
Clear Clear  
Wind Chill: 47°   Ceiling: Unl
Heat Index: 47°   Visibility: 7mi
Dew Point: 45°   Wind: 3mph
Humidity: 93%   Direction: 280°W
Pressure: 30.09"   Gusts: NA
Location:  27.45°N, 80.33°W
Report Text: KFPR 190853Z AUTO 28003KT 7SM CLR 08/07 A3009 RMK AO2 SLP187 T00830072 58005
Loading
Personal Weather Stations






























Interactive Weather Map New forecast layout! Learn more

10-Day Weather Forecast

Advertisements
Track Severe Weather on mobile